createdAt,value
2022-10-02T00:00:08.981Z,8.10
2022-10-02T00:02:45.080Z,8.10
2022-10-02T00:05:40.399Z,8.07
2022-10-02T00:08:32.482Z,8.01
2022-10-02T00:11:24.244Z,8.03
2022-10-02T00:14:01.848Z,8.02
2022-10-02T00:16:56.779Z,7.96
2022-10-02T00:19:23.426Z,7.90
2022-10-02T00:22:05.061Z,7.98
2022-10-02T00:24:39.929Z,7.97
2022-10-02T00:27:24.866Z,8.00
2022-10-02T00:29:55.461Z,8.03
2022-10-02T00:32:43.863Z,8.06
2022-10-02T00:35:28.513Z,8.08
2022-10-02T00:38:03.974Z,8.12
2022-10-02T00:40:55.124Z,8.15
2022-10-02T00:43:31.728Z,8.17
2022-10-02T00:46:07.651Z,8.19
2022-10-02T00:48:51.973Z,8.18
2022-10-02T00:51:55.319Z,8.15
2022-10-02T00:54:46.434Z,8.06
2022-10-02T00:57:37.170Z,8.16
2022-10-02T01:00:23.362Z,8.16
2022-10-02T01:03:17.797Z,8.21
2022-10-02T01:05:44.741Z,8.21
2022-10-02T01:08:11.380Z,8.19
2022-10-02T01:10:39.610Z,8.21
2022-10-02T01:13:07.376Z,8.22
2022-10-02T01:15:38.041Z,8.19
2022-10-02T01:18:06.402Z,8.13
2022-10-02T01:20:41.686Z,8.13
2022-10-02T01:23:32.769Z,8.06
2022-10-02T01:25:59.803Z,8.05
2022-10-02T01:28:26.806Z,8.04
2022-10-02T01:30:59.777Z,8.02
2022-10-02T01:33:26.760Z,7.98
2022-10-02T01:35:53.406Z,7.96
2022-10-02T01:38:23.434Z,7.93
2022-10-02T01:40:50.121Z,7.93
2022-10-02T01:43:24.133Z,7.89
2022-10-02T01:46:02.996Z,7.85
2022-10-02T01:49:06.606Z,7.82
2022-10-02T01:51:45.760Z,7.82
2022-10-02T01:54:26.001Z,7.83
2022-10-02T01:57:03.558Z,7.83
2022-10-02T01:59:50.923Z,7.80
2022-10-02T02:02:31.971Z,7.81
2022-10-02T02:05:36.693Z,7.83
2022-10-02T02:08:11.260Z,7.83
2022-10-02T02:10:46.771Z,7.80
2022-10-02T02:13:29.819Z,7.76
2022-10-02T02:16:14.677Z,7.75
2022-10-02T02:18:59.735Z,7.70
2022-10-02T02:21:50.189Z,7.71
2022-10-02T02:24:28.273Z,7.63
2022-10-02T02:26:59.229Z,7.58
2022-10-02T02:29:28.357Z,7.53
2022-10-02T02:31:56.805Z,7.54
2022-10-02T02:34:30.481Z,7.51
2022-10-02T02:37:05.023Z,7.40
2022-10-02T02:39:42.449Z,7.38
2022-10-02T02:42:17.584Z,7.34
2022-10-02T02:45:15.544Z,7.30
2022-10-02T02:47:50.848Z,7.18
2022-10-02T02:50:26.604Z,7.15
2022-10-02T02:53:09.016Z,7.09
2022-10-02T02:55:44.798Z,7.04
2022-10-02T02:58:24.328Z,7.06
2022-10-02T03:00:51.049Z,7.05
2022-10-02T03:03:17.754Z,6.93
2022-10-02T03:05:49.329Z,6.88
2022-10-02T03:08:28.728Z,6.91
2022-10-02T03:11:10.703Z,6.87
2022-10-02T03:13:44.536Z,6.87
2022-10-02T03:16:23.139Z,6.86
2022-10-02T03:19:00.133Z,6.86
2022-10-02T03:21:39.960Z,6.78
2022-10-02T03:24:16.867Z,6.76
2022-10-02T03:26:55.532Z,6.81
2022-10-02T03:29:35.016Z,6.73
2022-10-02T03:32:04.120Z,6.76
2022-10-02T03:34:34.059Z,6.78
2022-10-02T03:37:02.289Z,6.81
2022-10-02T03:39:29.127Z,6.79
2022-10-02T03:41:55.857Z,6.78
2022-10-02T03:44:22.497Z,6.79
2022-10-02T03:46:49.300Z,6.70
2022-10-02T03:49:15.934Z,6.72
2022-10-02T03:51:42.580Z,6.67
2022-10-02T03:54:18.872Z,6.76
2022-10-02T03:56:55.994Z,6.76
2022-10-02T03:59:35.329Z,6.69
2022-10-02T04:02:08.052Z,6.71
2022-10-02T04:04:44.752Z,6.73
2022-10-02T04:07:19.579Z,6.75
2022-10-02T04:09:52.310Z,6.76
2022-10-02T04:12:43.447Z,6.74
2022-10-02T04:15:45.971Z,6.82
2022-10-02T04:18:22.902Z,6.78
2022-10-02T04:21:05.378Z,6.70
2022-10-02T04:23:38.054Z,6.78
2022-10-02T04:26:27.924Z,6.69
2022-10-02T04:28:59.832Z,6.71
2022-10-02T04:31:28.557Z,6.71
2022-10-02T04:34:01.135Z,6.72
2022-10-02T04:36:37.585Z,6.70
2022-10-02T04:39:27.522Z,6.66
2022-10-02T04:42:33.521Z,6.66
2022-10-02T04:45:23.413Z,6.64
2022-10-02T04:48:22.434Z,6.66
2022-10-02T04:50:49.031Z,6.68
2022-10-02T04:53:34.042Z,6.68
2022-10-02T04:56:11.503Z,6.66
2022-10-02T04:59:00.222Z,6.67
2022-10-02T05:01:59.199Z,6.65
2022-10-02T05:04:40.907Z,6.68
2022-10-02T05:07:36.366Z,6.70
2022-10-02T05:10:40.339Z,6.71
2022-10-02T05:13:32.802Z,6.71
2022-10-02T05:16:29.869Z,6.71
2022-10-02T05:19:25.552Z,6.75
2022-10-02T05:22:12.047Z,6.77
2022-10-02T05:24:54.591Z,6.78
2022-10-02T05:27:36.739Z,6.85
2022-10-02T05:30:13.878Z,6.97
2022-10-02T05:32:55.752Z,7.07
2022-10-02T05:35:45.098Z,7.14
2022-10-02T05:38:26.932Z,7.22
2022-10-02T05:41:19.740Z,7.31
2022-10-02T05:44:15.395Z,7.42
2022-10-02T05:46:52.291Z,7.44
2022-10-02T05:49:25.386Z,7.49
2022-10-02T05:52:02.550Z,7.50
2022-10-02T05:54:34.736Z,7.51
2022-10-02T05:57:32.174Z,7.49
2022-10-02T06:00:12.956Z,7.56
2022-10-02T06:02:54.855Z,7.75
2022-10-02T06:05:26.941Z,8.01
2022-10-02T06:07:58.897Z,8.05
2022-10-02T06:10:31.147Z,8.11
2022-10-02T06:13:06.220Z,8.25
2022-10-02T06:15:45.040Z,8.39
2022-10-02T06:18:20.658Z,8.46
2022-10-02T06:20:59.553Z,8.60
2022-10-02T06:23:43.009Z,8.88
2022-10-02T06:26:15.577Z,9.34
2022-10-02T06:29:05.767Z,9.63
2022-10-02T06:31:43.643Z,9.66
2022-10-02T06:34:13.227Z,9.78
2022-10-02T06:36:48.922Z,9.96
2022-10-02T06:39:36.467Z,10.08
2022-10-02T06:42:29.554Z,10.25
2022-10-02T06:45:06.348Z,10.21
2022-10-02T06:48:05.957Z,10.20
2022-10-02T06:50:57.393Z,10.23
2022-10-02T06:53:36.381Z,10.43
2022-10-02T06:56:22.390Z,10.60
2022-10-02T06:59:01.376Z,10.64
2022-10-02T07:01:42.974Z,10.73
2022-10-02T07:04:16.836Z,11.08
2022-10-02T07:06:55.005Z,11.16
2022-10-02T07:09:39.884Z,11.56
2022-10-02T07:12:21.187Z,12.00
2022-10-02T07:15:26.180Z,12.22
2022-10-02T07:18:19.825Z,12.37
2022-10-02T07:21:09.847Z,12.53
2022-10-02T07:23:53.680Z,12.51
2022-10-02T07:26:44.259Z,12.33
2022-10-02T07:29:20.995Z,12.20
2022-10-02T07:31:53.443Z,12.09
2022-10-02T07:34:29.185Z,12.00
2022-10-02T07:37:25.565Z,11.91
2022-10-02T07:40:29.594Z,11.92
2022-10-02T07:43:26.689Z,11.97
2022-10-02T07:46:17.154Z,12.07
2022-10-02T07:49:16.079Z,12.14
2022-10-02T07:51:55.090Z,12.52
2022-10-02T07:54:33.900Z,12.82
2022-10-02T07:57:39.487Z,13.24
2022-10-02T08:00:13.912Z,13.55
2022-10-02T08:03:19.425Z,13.88
2022-10-02T08:05:49.474Z,14.03
2022-10-02T08:08:53.346Z,14.07
2022-10-02T08:11:28.075Z,14.09
2022-10-02T08:13:59.571Z,14.15
2022-10-02T08:16:49.721Z,14.36
2022-10-02T08:19:33.838Z,14.46
2022-10-02T08:22:55.908Z,14.54
2022-10-02T08:25:30.382Z,14.57
2022-10-02T08:28:06.201Z,14.62
2022-10-02T08:30:32.881Z,14.80
2022-10-02T08:32:59.562Z,15.03
2022-10-02T08:35:46.031Z,15.12
2022-10-02T08:38:41.365Z,15.17
2022-10-02T08:41:29.362Z,15.22
2022-10-02T08:44:17.699Z,15.26
2022-10-02T08:47:03.196Z,15.42
2022-10-02T08:49:53.545Z,15.68
2022-10-02T08:52:45.064Z,15.83
2022-10-02T08:55:44.401Z,16.05
2022-10-02T08:58:48.435Z,16.14
2022-10-02T09:01:36.607Z,16.44
2022-10-02T09:04:24.091Z,16.60
2022-10-02T09:07:12.278Z,16.40
2022-10-02T09:10:01.230Z,16.38
2022-10-02T09:12:46.883Z,16.30
2022-10-02T09:15:31.725Z,16.20
2022-10-02T09:18:33.512Z,16.08
2022-10-02T09:21:11.323Z,16.04
2022-10-02T09:23:57.030Z,15.95
2022-10-02T09:27:14.551Z,15.91
2022-10-02T09:30:09.045Z,15.87
2022-10-02T09:33:13.790Z,15.78
2022-10-02T09:36:04.323Z,15.72
2022-10-02T09:38:55.890Z,15.71
2022-10-02T09:41:56.741Z,15.68
2022-10-02T09:45:01.361Z,15.83
2022-10-02T09:47:43.667Z,15.88
2022-10-02T09:50:42.160Z,15.85
2022-10-02T09:53:33.775Z,15.82
2022-10-02T09:56:42.070Z,15.79
2022-10-02T09:59:27.564Z,15.78
2022-10-02T10:02:33.283Z,15.78
2022-10-02T10:05:33.392Z,15.77
2022-10-02T10:08:36.089Z,15.72
2022-10-02T10:11:12.746Z,15.65
2022-10-02T10:13:49.908Z,15.62
2022-10-02T10:16:30.790Z,15.59
2022-10-02T10:18:57.498Z,15.58
2022-10-02T10:21:46.703Z,15.53
2022-10-02T10:24:47.012Z,15.45
2022-10-02T10:27:30.995Z,15.34
2022-10-02T10:30:15.892Z,15.32
2022-10-02T10:33:05.363Z,15.41
2022-10-02T10:35:34.574Z,15.42
2022-10-02T10:38:28.660Z,15.28
2022-10-02T10:41:26.135Z,15.22
2022-10-02T10:44:21.966Z,15.24
2022-10-02T10:47:23.916Z,15.29
2022-10-02T10:50:16.791Z,15.27
2022-10-02T10:53:19.634Z,15.24
2022-10-02T10:55:59.456Z,15.16
2022-10-02T10:59:06.520Z,15.11
2022-10-02T11:01:54.207Z,15.07
2022-10-02T11:04:39.510Z,15.09
2022-10-02T11:07:35.165Z,15.04
2022-10-02T11:10:26.553Z,15.02
2022-10-02T11:13:47.026Z,14.98
2022-10-02T11:16:40.191Z,14.97
2022-10-02T11:19:40.463Z,14.82
2022-10-02T11:22:15.194Z,14.83
2022-10-02T11:24:44.401Z,14.73
2022-10-02T11:27:41.015Z,14.69
2022-10-02T11:30:24.159Z,14.70
2022-10-02T11:33:10.867Z,14.71
2022-10-02T11:35:48.262Z,14.67
2022-10-02T11:38:29.882Z,14.58
2022-10-02T11:41:11.602Z,14.52
2022-10-02T11:44:09.054Z,14.52
2022-10-02T11:46:59.850Z,14.49
2022-10-02T11:49:35.694Z,14.44
2022-10-02T11:52:43.685Z,14.51
2022-10-02T11:55:55.710Z,14.53
2022-10-02T11:58:53.400Z,14.53
2022-10-02T12:01:45.826Z,14.51
2022-10-02T12:04:12.366Z,14.57
2022-10-02T12:06:51.650Z,14.53
2022-10-02T12:09:36.333Z,14.42
2022-10-02T12:12:30.080Z,14.36
2022-10-02T12:15:09.641Z,14.44
2022-10-02T12:18:08.807Z,14.57
2022-10-02T12:21:25.054Z,14.65
2022-10-02T12:24:44.925Z,14.69
2022-10-02T12:27:28.645Z,14.74
2022-10-02T12:30:05.168Z,14.72
2022-10-02T12:32:49.962Z,14.77
2022-10-02T12:35:38.332Z,14.80
2022-10-02T12:38:16.478Z,14.78
2022-10-02T12:41:11.458Z,14.85
2022-10-02T12:43:44.358Z,14.88
2022-10-02T12:46:19.107Z,14.85
2022-10-02T12:48:46.119Z,14.80
2022-10-02T12:51:38.969Z,14.84
2022-10-02T12:54:36.562Z,14.92
2022-10-02T12:57:09.254Z,14.88
2022-10-02T12:59:58.448Z,14.81
2022-10-02T13:03:00.805Z,14.79
2022-10-02T13:05:32.127Z,14.87
2022-10-02T13:08:09.728Z,15.03
2022-10-02T13:10:58.181Z,15.05
2022-10-02T13:13:27.850Z,15.06
2022-10-02T13:16:21.616Z,15.06
2022-10-02T13:19:18.987Z,15.17
2022-10-02T13:21:48.648Z,15.28
2022-10-02T13:24:36.366Z,15.33
2022-10-02T13:27:06.449Z,15.35
2022-10-02T13:30:14.255Z,15.44
2022-10-02T13:32:46.971Z,15.43
2022-10-02T13:35:16.671Z,15.39
2022-10-02T13:37:58.257Z,15.37
2022-10-02T13:40:47.947Z,15.38
2022-10-02T13:43:40.769Z,15.38
2022-10-02T13:46:23.786Z,15.37
2022-10-02T13:49:06.135Z,15.28
2022-10-02T13:51:55.604Z,15.21
2022-10-02T13:54:43.840Z,15.21
2022-10-02T13:57:34.751Z,15.21
2022-10-02T14:00:14.453Z,15.17
2022-10-02T14:03:09.515Z,15.15
2022-10-02T14:05:46.079Z,15.15
2022-10-02T14:08:15.613Z,15.11
2022-10-02T14:11:06.658Z,15.00
2022-10-02T14:13:59.071Z,14.84
2022-10-02T14:16:35.095Z,14.66
2022-10-02T14:19:13.797Z,14.44
2022-10-02T14:22:28.032Z,14.29
2022-10-02T14:25:00.686Z,14.21
2022-10-02T14:27:45.765Z,14.17
2022-10-02T14:30:22.029Z,14.15
2022-10-02T14:33:02.012Z,14.17
2022-10-02T14:35:35.743Z,14.17
2022-10-02T14:38:05.445Z,14.19
2022-10-02T14:41:02.198Z,14.17
2022-10-02T14:43:42.197Z,14.15
2022-10-02T14:46:23.914Z,14.11
2022-10-02T14:49:06.250Z,14.10
2022-10-02T14:52:03.681Z,14.11
2022-10-02T14:54:31.432Z,14.12
2022-10-02T14:57:19.656Z,14.13
2022-10-02T15:00:07.594Z,14.12
2022-10-02T15:02:42.915Z,14.12
2022-10-02T15:05:09.537Z,14.13
2022-10-02T15:07:39.216Z,14.10
2022-10-02T15:10:15.955Z,14.07
2022-10-02T15:12:50.678Z,14.05
2022-10-02T15:15:27.013Z,14.00
2022-10-02T15:17:56.564Z,13.95
2022-10-02T15:20:54.471Z,14.00
2022-10-02T15:23:44.829Z,13.92
2022-10-02T15:26:26.632Z,13.87
2022-10-02T15:29:21.193Z,13.85
2022-10-02T15:32:09.686Z,13.79
2022-10-02T15:34:52.567Z,13.73
2022-10-02T15:37:24.507Z,13.69
2022-10-02T15:40:06.374Z,13.61
2022-10-02T15:42:50.038Z,13.61
2022-10-02T15:45:41.586Z,13.59
2022-10-02T15:48:32.243Z,13.57
2022-10-02T15:51:10.999Z,13.56
2022-10-02T15:53:58.691Z,13.52
2022-10-02T15:56:47.731Z,13.54
2022-10-02T15:59:31.312Z,13.52
2022-10-02T16:02:07.095Z,13.45
2022-10-02T16:04:52.358Z,13.46
2022-10-02T16:07:36.521Z,13.37
2022-10-02T16:10:25.614Z,13.29
2022-10-02T16:13:07.424Z,13.27
2022-10-02T16:15:52.168Z,13.27
2022-10-02T16:18:45.790Z,13.26
2022-10-02T16:21:37.309Z,13.22
2022-10-02T16:24:32.912Z,13.19
2022-10-02T16:27:02.442Z,13.18
2022-10-02T16:29:29.018Z,13.08
2022-10-02T16:32:20.383Z,13.04
2022-10-02T16:35:25.204Z,13.00
2022-10-02T16:38:06.471Z,12.93
2022-10-02T16:40:40.511Z,12.93
2022-10-02T16:43:37.544Z,12.89
2022-10-02T16:46:21.187Z,12.87
2022-10-02T16:48:56.161Z,12.84
2022-10-02T16:51:25.637Z,12.74
2022-10-02T16:54:03.665Z,12.57
2022-10-02T16:57:00.765Z,12.51
2022-10-02T16:59:44.967Z,12.57
2022-10-02T17:02:34.755Z,12.52
2022-10-02T17:05:13.749Z,12.48
2022-10-02T17:08:01.968Z,12.39
2022-10-02T17:10:53.253Z,12.41
2022-10-02T17:13:44.611Z,12.47
2022-10-02T17:16:25.517Z,12.44
2022-10-02T17:18:57.543Z,12.39
2022-10-02T17:22:04.154Z,12.29
2022-10-02T17:25:11.594Z,12.28
2022-10-02T17:27:47.587Z,12.28
2022-10-02T17:30:27.182Z,12.29
2022-10-02T17:33:15.981Z,12.31
2022-10-02T17:36:06.435Z,12.33
2022-10-02T17:38:48.003Z,12.28
2022-10-02T17:41:30.694Z,12.24
2022-10-02T17:44:27.081Z,12.22
2022-10-02T17:47:02.518Z,12.23
2022-10-02T17:49:50.079Z,12.21
2022-10-02T17:52:41.413Z,12.28
2022-10-02T17:55:58.867Z,12.25
2022-10-02T17:58:44.491Z,12.20
2022-10-02T18:01:32.676Z,12.22
2022-10-02T18:04:18.814Z,12.12
2022-10-02T18:07:15.594Z,12.06
2022-10-02T18:09:51.086Z,12.08
2022-10-02T18:12:29.916Z,12.09
2022-10-02T18:15:05.280Z,12.10
2022-10-02T18:17:38.498Z,12.11
2022-10-02T18:20:14.532Z,12.07
2022-10-02T18:23:08.942Z,12.06
2022-10-02T18:25:50.885Z,12.05
2022-10-02T18:28:36.047Z,12.05
2022-10-02T18:31:33.256Z,12.04
2022-10-02T18:34:27.157Z,12.04
2022-10-02T18:37:37.802Z,12.03
2022-10-02T18:40:17.286Z,11.99
2022-10-02T18:43:09.224Z,11.96
2022-10-02T18:45:51.362Z,11.96
2022-10-02T18:48:23.878Z,11.92
2022-10-02T18:51:05.061Z,11.89
2022-10-02T18:54:11.649Z,11.88
2022-10-02T18:57:17.026Z,11.82
2022-10-02T19:00:17.100Z,11.82
2022-10-02T19:03:09.304Z,11.71
2022-10-02T19:05:56.084Z,11.70
2022-10-02T19:08:31.670Z,11.62
2022-10-02T19:11:18.540Z,11.51
2022-10-02T19:13:49.076Z,11.65
2022-10-02T19:16:25.552Z,11.73
2022-10-02T19:19:21.466Z,11.59
2022-10-02T19:21:48.776Z,11.56
2022-10-02T19:24:19.183Z,11.54
2022-10-02T19:26:52.135Z,11.52
2022-10-02T19:29:36.742Z,11.51
2022-10-02T19:32:25.673Z,11.43
2022-10-02T19:35:01.529Z,11.40
2022-10-02T19:37:28.774Z,11.32
2022-10-02T19:39:58.758Z,11.31
2022-10-02T19:42:29.938Z,11.32
2022-10-02T19:45:02.938Z,11.33
2022-10-02T19:47:41.673Z,11.33
2022-10-02T19:50:23.422Z,11.27
2022-10-02T19:52:54.313Z,11.21
2022-10-02T19:55:33.943Z,11.20
2022-10-02T19:58:06.520Z,11.14
2022-10-02T20:00:38.499Z,11.12
2022-10-02T20:03:13.420Z,11.08
2022-10-02T20:05:42.087Z,11.08
2022-10-02T20:08:16.823Z,11.12
2022-10-02T20:11:11.055Z,11.12
2022-10-02T20:13:44.593Z,11.13
2022-10-02T20:16:32.803Z,11.08
2022-10-02T20:18:59.505Z,11.01
2022-10-02T20:21:40.484Z,11.01
2022-10-02T20:24:17.598Z,11.08
2022-10-02T20:26:47.032Z,11.00
2022-10-02T20:29:27.081Z,10.98
2022-10-02T20:32:11.057Z,10.89
2022-10-02T20:35:02.776Z,11.01
2022-10-02T20:37:34.983Z,10.99
2022-10-02T20:40:08.848Z,11.00
2022-10-02T20:43:04.654Z,10.97
2022-10-02T20:45:48.541Z,10.99
2022-10-02T20:48:43.559Z,10.95
2022-10-02T20:51:41.966Z,10.91
2022-10-02T20:54:42.389Z,10.91
2022-10-02T20:57:33.704Z,10.90
2022-10-02T21:00:43.201Z,10.81
2022-10-02T21:03:28.717Z,10.79
2022-10-02T21:06:13.124Z,10.86
2022-10-02T21:09:05.007Z,10.86
2022-10-02T21:12:13.742Z,10.83
2022-10-02T21:14:55.473Z,10.82
2022-10-02T21:17:31.152Z,10.89
2022-10-02T21:20:16.664Z,10.79
2022-10-02T21:23:01.630Z,10.71
2022-10-02T21:25:40.645Z,10.64
2022-10-02T21:28:22.174Z,10.57
2022-10-02T21:31:13.539Z,10.53
2022-10-02T21:33:58.930Z,10.46
2022-10-02T21:36:33.920Z,10.40
2022-10-02T21:39:03.558Z,10.31
2022-10-02T21:41:51.766Z,10.28
2022-10-02T21:44:42.336Z,10.22
2022-10-02T21:48:06.548Z,10.20
2022-10-02T21:50:50.783Z,10.14
2022-10-02T21:53:41.485Z,10.10
2022-10-02T21:56:52.465Z,10.07
2022-10-02T21:59:19.781Z,10.02
2022-10-02T22:02:23.333Z,10.03
2022-10-02T22:05:03.324Z,10.03
2022-10-02T22:07:35.998Z,10.02
2022-10-02T22:10:14.751Z,9.97
2022-10-02T22:13:04.460Z,9.92
2022-10-02T22:15:40.101Z,9.87
2022-10-02T22:18:15.860Z,9.86
2022-10-02T22:20:57.145Z,9.87
2022-10-02T22:23:39.820Z,9.79
2022-10-02T22:26:37.208Z,9.74
2022-10-02T22:29:18.651Z,9.73
2022-10-02T22:32:17.406Z,9.70
2022-10-02T22:35:06.323Z,9.66
2022-10-02T22:37:58.830Z,9.61
2022-10-02T22:40:39.224Z,9.56
2022-10-02T22:43:15.255Z,9.51
2022-10-02T22:46:00.885Z,9.50
2022-10-02T22:48:33.128Z,9.47
2022-10-02T22:51:24.014Z,9.42
2022-10-02T22:54:21.846Z,9.43
2022-10-02T22:57:03.885Z,9.41
2022-10-02T22:59:39.091Z,9.40
2022-10-02T23:02:20.837Z,9.36
2022-10-02T23:05:07.689Z,9.31
2022-10-02T23:07:40.641Z,9.23
2022-10-02T23:10:43.688Z,9.15
2022-10-02T23:13:41.795Z,9.12
2022-10-02T23:16:15.394Z,9.12
2022-10-02T23:19:03.190Z,9.00
2022-10-02T23:21:39.161Z,8.92
2022-10-02T23:24:11.504Z,8.86
2022-10-02T23:26:41.238Z,8.84
2022-10-02T23:29:26.064Z,8.85
2022-10-02T23:32:00.752Z,8.82
2022-10-02T23:34:54.039Z,8.92
2022-10-02T23:37:27.967Z,8.85
2022-10-02T23:40:06.268Z,8.85
2022-10-02T23:42:39.968Z,8.88
2022-10-02T23:45:37.439Z,8.90
2022-10-02T23:48:07.449Z,8.95
2022-10-02T23:50:53.745Z,9.01
2022-10-02T23:53:55.738Z,9.03
2022-10-02T23:56:51.782Z,9.04
2022-10-02T23:59:40.228Z,9.02
